createdAt,value
2022-11-27T00:00:47.613Z,4.4
2022-11-27T00:01:47.649Z,4.4
2022-11-27T00:02:47.756Z,4.4
2022-11-27T00:03:47.780Z,4.3
2022-11-27T00:04:47.760Z,4.4
2022-11-27T00:05:47.818Z,4.4
2022-11-27T00:06:47.926Z,4.3
2022-11-27T00:07:47.922Z,4.3
2022-11-27T00:08:47.889Z,4.4
2022-11-27T00:09:47.955Z,4.3
2022-11-27T00:10:47.956Z,4.4
2022-11-27T00:11:47.981Z,4.4
2022-11-27T00:12:48.010Z,4.3
2022-11-27T00:13:48.059Z,4.4
2022-11-27T00:14:49.626Z,4.4
2022-11-27T00:15:48.204Z,4.4
2022-11-27T00:16:48.145Z,4.5
2022-11-27T00:17:48.188Z,4.5
2022-11-27T00:18:48.238Z,4.4
2022-11-27T00:19:48.272Z,4.4
2022-11-27T00:20:48.325Z,4.3
2022-11-27T00:21:48.356Z,4.3
2022-11-27T00:22:48.364Z,4.3
2022-11-27T00:23:48.391Z,4.3
2022-11-27T00:24:48.464Z,4.3
2022-11-27T00:25:48.529Z,4.3
2022-11-27T00:26:48.465Z,4.3
2022-11-27T00:27:48.503Z,4.3
2022-11-27T00:28:48.555Z,4.3
2022-11-27T00:29:48.585Z,4.3
2022-11-27T00:30:48.671Z,4.2
2022-11-27T00:31:48.636Z,4.2
2022-11-27T00:32:48.660Z,4.2
2022-11-27T00:33:48.756Z,4.3
2022-11-27T00:34:48.757Z,4.2
2022-11-27T00:35:48.797Z,4.2
2022-11-27T00:36:48.839Z,4.1
2022-11-27T00:37:48.869Z,4.2
2022-11-27T00:38:48.901Z,4.2
2022-11-27T00:39:48.913Z,4.2
2022-11-27T00:40:48.980Z,4.3
2022-11-27T00:41:48.977Z,4.3
2022-11-27T00:42:49.003Z,4.3
2022-11-27T00:43:49.050Z,4.3
2022-11-27T00:44:49.072Z,4.3
2022-11-27T00:45:49.127Z,4.2
2022-11-27T00:46:49.239Z,4.2
2022-11-27T00:47:49.151Z,4.2
2022-11-27T00:48:49.198Z,4.2
2022-11-27T00:49:49.235Z,4.3
2022-11-27T00:50:49.258Z,4.2
2022-11-27T00:51:49.302Z,4.1
2022-11-27T00:52:49.361Z,4.2
2022-11-27T00:53:49.416Z,4.2
2022-11-27T00:54:49.543Z,4.3
2022-11-27T00:55:49.580Z,4.3
2022-11-27T00:56:49.688Z,4.1
2022-11-27T00:57:49.693Z,4.2
2022-11-27T00:58:49.762Z,4.2
2022-11-27T00:59:49.844Z,4.2
2022-11-27T01:00:49.905Z,4.1
2022-11-27T01:01:49.969Z,4
2022-11-27T01:02:50.090Z,4.1
2022-11-27T01:03:50.063Z,4.1
2022-11-27T01:04:50.098Z,4
2022-11-27T01:05:50.210Z,4
2022-11-27T01:06:50.245Z,4.1
2022-11-27T01:07:50.293Z,4.1
2022-11-27T01:08:50.299Z,4.1
2022-11-27T01:09:50.324Z,4.1
2022-11-27T01:10:54.517Z,4.1
2022-11-27T01:11:50.377Z,4.1
2022-11-27T01:12:50.416Z,4.1
2022-11-27T01:13:50.453Z,4.1
2022-11-27T01:14:50.494Z,4
2022-11-27T01:15:50.517Z,4.1
2022-11-27T01:16:50.530Z,4.1
2022-11-27T01:17:50.598Z,4
2022-11-27T01:18:50.616Z,3.9
2022-11-27T01:19:50.639Z,4
2022-11-27T01:20:50.672Z,4
2022-11-27T01:21:50.680Z,4
2022-11-27T01:22:50.714Z,3.9
2022-11-27T01:23:50.770Z,3.9
2022-11-27T01:24:50.810Z,4
2022-11-27T01:25:51.071Z,4
2022-11-27T01:26:50.872Z,4
2022-11-27T01:27:50.902Z,4
2022-11-27T01:28:50.955Z,4
2022-11-27T01:29:50.958Z,4
2022-11-27T01:30:51.111Z,4
2022-11-27T01:31:51.023Z,4
2022-11-27T01:32:51.059Z,3.9
2022-11-27T01:33:51.121Z,3.9
2022-11-27T01:34:51.174Z,4
2022-11-27T01:35:51.164Z,4
2022-11-27T01:36:51.239Z,4
2022-11-27T01:37:51.238Z,3.9
2022-11-27T01:38:51.266Z,3.9
2022-11-27T01:39:51.311Z,4
2022-11-27T01:40:51.351Z,4
2022-11-27T01:41:51.365Z,4
2022-11-27T01:42:51.424Z,3.9
2022-11-27T01:43:51.441Z,4.1
2022-11-27T01:44:51.446Z,4.1
2022-11-27T01:45:51.470Z,4.1
2022-11-27T01:46:51.569Z,4.1
2022-11-27T01:47:51.536Z,4
2022-11-27T01:48:51.586Z,3.9
2022-11-27T01:49:51.633Z,3.9
2022-11-27T01:50:51.713Z,4
2022-11-27T01:51:51.685Z,4
2022-11-27T01:52:51.710Z,4
2022-11-27T01:53:51.769Z,4
2022-11-27T01:54:51.793Z,4
2022-11-27T01:55:51.822Z,4.1
2022-11-27T01:56:51.842Z,4.1
2022-11-27T01:57:51.878Z,4
2022-11-27T01:58:51.995Z,4
2022-11-27T01:59:51.926Z,4
2022-11-27T02:00:52.017Z,4
2022-11-27T02:01:52.084Z,4
2022-11-27T02:02:52.123Z,4
2022-11-27T02:03:52.144Z,4
2022-11-27T02:04:52.178Z,4
2022-11-27T02:05:52.262Z,4
2022-11-27T02:06:52.365Z,4
2022-11-27T02:07:52.507Z,4
2022-11-27T02:08:52.467Z,4
2022-11-27T02:09:52.519Z,4
2022-11-27T02:10:54.390Z,4
2022-11-27T02:11:52.722Z,4
2022-11-27T02:12:52.719Z,4
2022-11-27T02:13:52.780Z,4
2022-11-27T02:14:52.861Z,4
2022-11-27T02:15:52.873Z,4
2022-11-27T02:16:52.893Z,4
2022-11-27T02:17:52.938Z,4
2022-11-27T02:18:53.022Z,4
2022-11-27T02:19:53.053Z,4
2022-11-27T02:20:53.173Z,4
2022-11-27T02:21:53.080Z,4
2022-11-27T02:22:53.122Z,4
2022-11-27T02:23:53.254Z,3.9
2022-11-27T02:24:53.223Z,3.9
2022-11-27T02:25:53.230Z,3.9
2022-11-27T02:26:53.289Z,3.9
2022-11-27T02:27:53.385Z,3.8
2022-11-27T02:28:53.402Z,3.9
2022-11-27T02:29:53.430Z,3.8
2022-11-27T02:30:53.471Z,3.9
2022-11-27T02:31:53.464Z,3.8
2022-11-27T02:32:53.509Z,3.8
2022-11-27T02:33:53.600Z,3.8
2022-11-27T02:34:53.579Z,3.8
2022-11-27T02:35:53.627Z,3.8
2022-11-27T02:36:53.615Z,3.8
2022-11-27T02:37:53.660Z,3.8
2022-11-27T02:38:53.688Z,3.7
2022-11-27T02:39:53.687Z,3.7
2022-11-27T02:40:53.933Z,3.8
2022-11-27T02:41:53.803Z,3.8
2022-11-27T02:42:53.916Z,3.8
2022-11-27T02:43:53.873Z,3.8
2022-11-27T02:44:53.866Z,3.8
2022-11-27T02:45:53.899Z,3.8
2022-11-27T02:46:54.043Z,3.7
2022-11-27T02:47:53.959Z,3.7
2022-11-27T02:48:54.020Z,3.7
2022-11-27T02:49:54.099Z,3.7
2022-11-27T02:50:54.103Z,3.7
2022-11-27T02:51:54.113Z,3.7
2022-11-27T02:52:54.164Z,3.5
2022-11-27T02:53:54.201Z,3.6
2022-11-27T02:54:54.216Z,3.6
2022-11-27T02:55:54.412Z,3.7
2022-11-27T02:56:54.301Z,3.7
2022-11-27T02:57:54.353Z,3.6
2022-11-27T02:58:54.508Z,3.6
2022-11-27T02:59:54.488Z,3.6
2022-11-27T03:00:54.445Z,3.6
2022-11-27T03:01:54.516Z,3.6
2022-11-27T03:02:54.510Z,3.6
2022-11-27T03:03:54.547Z,3.6
2022-11-27T03:04:54.542Z,3.7
2022-11-27T03:05:54.597Z,3.6
2022-11-27T03:06:54.629Z,3.5
2022-11-27T03:07:54.644Z,3.5
2022-11-27T03:08:54.705Z,3.6
2022-11-27T03:09:54.736Z,3.6
2022-11-27T03:10:54.759Z,3.6
2022-11-27T03:11:54.789Z,3.6
2022-11-27T03:12:54.821Z,3.6
2022-11-27T03:13:54.877Z,3.6
2022-11-27T03:14:55.005Z,3.5
2022-11-27T03:15:55.005Z,3.5
2022-11-27T03:16:55.047Z,3.5
2022-11-27T03:17:55.128Z,3.5
2022-11-27T03:18:55.153Z,3.6
2022-11-27T03:19:55.208Z,3.6
2022-11-27T03:20:55.314Z,3.5
2022-11-27T03:21:55.334Z,3.5
2022-11-27T03:22:55.414Z,3.5
2022-11-27T03:23:55.515Z,3.5
2022-11-27T03:24:55.564Z,3.4
2022-11-27T03:25:55.637Z,3.5
2022-11-27T03:26:55.616Z,3.5
2022-11-27T03:28:04.921Z,3.5
2022-11-27T03:30:06.019Z,3.5
2022-11-27T03:30:06.200Z,3.5
2022-11-27T03:30:55.879Z,3.4
2022-11-27T03:31:57.735Z,3.4
2022-11-27T03:32:56.134Z,3.4
2022-11-27T03:33:55.902Z,3.4
2022-11-27T03:34:55.925Z,3.5
2022-11-27T03:35:56.567Z,3.4
2022-11-27T03:36:55.977Z,3.4
2022-11-27T03:37:55.975Z,3.5
2022-11-27T03:38:57.458Z,3.5
2022-11-27T03:39:56.043Z,3.4
2022-11-27T03:40:56.122Z,3.4
2022-11-27T03:41:56.094Z,3.4
2022-11-27T03:42:56.110Z,3.3
2022-11-27T03:43:56.155Z,3.3
2022-11-27T03:44:56.513Z,3.4
2022-11-27T03:45:56.366Z,3.3
2022-11-27T03:46:56.234Z,3.3
2022-11-27T03:47:59.831Z,3.3
2022-11-27T03:48:56.281Z,3.4
2022-11-27T03:49:56.366Z,3.4
2022-11-27T03:50:56.456Z,3.4
2022-11-27T03:51:56.378Z,3.5
2022-11-27T03:52:56.403Z,3.4
2022-11-27T03:53:56.464Z,3.4
2022-11-27T03:54:56.495Z,3.4
2022-11-27T03:55:56.511Z,3.5
2022-11-27T03:56:57.537Z,3.5
2022-11-27T03:57:56.573Z,3.4
2022-11-27T03:58:56.650Z,3.4
2022-11-27T03:59:58.345Z,3.5
2022-11-27T04:00:56.778Z,3.5
2022-11-27T04:01:56.862Z,3.5
2022-11-27T04:02:57.480Z,3.4
2022-11-27T04:03:56.796Z,3.4
2022-11-27T04:04:56.775Z,3.3
2022-11-27T04:05:59.060Z,3.3
2022-11-27T04:06:56.835Z,3.3
2022-11-27T04:07:56.912Z,3.3
2022-11-27T04:08:57.579Z,3.4
2022-11-27T04:09:56.952Z,3.4
2022-11-27T04:10:56.963Z,3.4
2022-11-27T04:11:59.284Z,3.4
2022-11-27T04:12:57.040Z,3.4
2022-11-27T04:13:57.138Z,3.4
2022-11-27T04:14:57.477Z,3.4
2022-11-27T04:15:57.207Z,3.4
2022-11-27T04:16:57.201Z,3.5
2022-11-27T04:17:58.822Z,3.4
2022-11-27T04:18:57.169Z,3.4
2022-11-27T04:19:57.216Z,3.4
2022-11-27T04:20:57.696Z,3.4
2022-11-27T04:21:57.277Z,3.4
2022-11-27T04:22:57.305Z,3.4
2022-11-27T04:23:58.928Z,3.4
2022-11-27T04:24:57.362Z,3.4
2022-11-27T04:25:57.445Z,3.4
2022-11-27T04:26:57.641Z,3.4
2022-11-27T04:27:57.534Z,3.4
2022-11-27T04:28:57.622Z,3.4
2022-11-27T04:29:59.502Z,3.4
2022-11-27T04:31:29.415Z,3.4
2022-11-27T04:31:57.849Z,3.5
2022-11-27T04:32:57.961Z,3.5
2022-11-27T04:33:58.160Z,3.4
2022-11-27T04:34:58.000Z,3.4
2022-11-27T04:35:58.076Z,3.4
2022-11-27T04:36:58.068Z,3.4
2022-11-27T04:37:58.123Z,3.6
2022-11-27T04:38:58.148Z,3.5
2022-11-27T04:39:58.196Z,3.5
2022-11-27T04:40:58.217Z,3.5
2022-11-27T04:41:58.291Z,3.5
2022-11-27T04:43:03.275Z,3.5
2022-11-27T04:43:58.320Z,3.5
2022-11-27T04:44:58.344Z,3.5
2022-11-27T04:45:58.377Z,3.5
2022-11-27T04:46:58.493Z,3.5
2022-11-27T04:47:58.444Z,3.5
2022-11-27T04:48:58.435Z,3.5
2022-11-27T04:50:04.374Z,3.6
2022-11-27T04:50:58.646Z,3.6
2022-11-27T04:51:58.585Z,3.6
2022-11-27T04:52:58.577Z,3.6
2022-11-27T04:53:58.592Z,3.6
2022-11-27T04:55:00.378Z,3.6
2022-11-27T04:55:58.649Z,3.6
2022-11-27T04:56:58.684Z,3.6
2022-11-27T04:57:58.719Z,3.6
2022-11-27T04:58:58.808Z,3.6
2022-11-27T04:59:58.775Z,3.6
2022-11-27T05:00:59.060Z,3.7
2022-11-27T05:01:58.855Z,3.7
2022-11-27T05:02:58.868Z,3.7
2022-11-27T05:03:58.882Z,3.7
2022-11-27T05:04:58.919Z,3.7
2022-11-27T05:05:58.989Z,3.7
2022-11-27T05:06:59.077Z,3.6
2022-11-27T05:07:59.024Z,3.7
2022-11-27T05:08:59.031Z,3.7
2022-11-27T05:09:59.071Z,3.7
2022-11-27T05:10:59.115Z,3.7
2022-11-27T05:11:59.114Z,3.7
2022-11-27T05:12:59.139Z,3.8
2022-11-27T05:13:59.203Z,3.7
2022-11-27T05:15:03.111Z,3.7
2022-11-27T05:15:59.331Z,3.7
2022-11-27T05:16:59.331Z,3.7
2022-11-27T05:17:59.349Z,3.7
2022-11-27T05:18:59.332Z,3.6
2022-11-27T05:19:59.322Z,3.7
2022-11-27T05:20:59.365Z,3.7
2022-11-27T05:21:59.382Z,3.7
2022-11-27T05:22:59.609Z,3.7
2022-11-27T05:23:59.475Z,3.7
2022-11-27T05:24:59.544Z,3.6
2022-11-27T05:25:59.559Z,3.7
2022-11-27T05:26:59.536Z,3.8
2022-11-27T05:27:59.626Z,3.7
2022-11-27T05:28:59.590Z,3.7
2022-11-27T05:29:59.621Z,3.7
2022-11-27T05:30:59.690Z,3.8
2022-11-27T05:31:59.694Z,3.8
2022-11-27T05:32:59.721Z,3.7
2022-11-27T05:33:59.752Z,3.8
2022-11-27T05:34:59.947Z,3.7
2022-11-27T05:35:59.834Z,3.8
2022-11-27T05:36:59.829Z,3.8
2022-11-27T05:37:59.867Z,3.8
2022-11-27T05:39:00.086Z,3.8
2022-11-27T05:40:00.103Z,3.8
2022-11-27T05:41:00.198Z,3.8
2022-11-27T05:42:00.220Z,3.8
2022-11-27T05:43:00.437Z,3.8
2022-11-27T05:44:00.331Z,3.8
2022-11-27T05:45:00.486Z,3.8
2022-11-27T05:46:00.605Z,3.8
2022-11-27T05:47:00.587Z,3.8
2022-11-27T05:48:00.568Z,3.8
2022-11-27T05:49:00.622Z,3.9
2022-11-27T05:50:00.696Z,3.9
2022-11-27T05:51:00.718Z,3.9
2022-11-27T05:52:00.767Z,3.8
2022-11-27T05:53:00.837Z,3.8
2022-11-27T05:54:00.885Z,3.9
2022-11-27T05:55:01.100Z,3.9
2022-11-27T05:56:01.165Z,3.8
2022-11-27T05:57:01.063Z,3.9
2022-11-27T05:58:01.124Z,3.9
2022-11-27T05:59:01.145Z,3.9
2022-11-27T06:00:01.241Z,3.9
2022-11-27T06:01:01.357Z,3.9
2022-11-27T06:02:01.302Z,4
2022-11-27T06:03:01.388Z,4
2022-11-27T06:04:01.334Z,4
2022-11-27T06:05:01.348Z,4
2022-11-27T06:06:01.397Z,4
2022-11-27T06:07:01.413Z,4
2022-11-27T06:08:06.463Z,4
2022-11-27T06:09:01.465Z,4
2022-11-27T06:10:01.481Z,4
2022-11-27T06:11:01.716Z,4
2022-11-27T06:12:01.558Z,4
2022-11-27T06:13:01.588Z,4.1
2022-11-27T06:14:01.625Z,4.1
2022-11-27T06:15:01.669Z,4.1
2022-11-27T06:16:01.729Z,4.1
2022-11-27T06:17:01.717Z,4.1
2022-11-27T06:18:01.712Z,4.1
2022-11-27T06:19:01.745Z,4.1
2022-11-27T06:20:01.761Z,4.2
2022-11-27T06:21:01.821Z,4.2
2022-11-27T06:22:01.833Z,4.2
2022-11-27T06:23:01.869Z,4.1
2022-11-27T06:24:01.945Z,4.2
2022-11-27T06:25:01.943Z,4.1
2022-11-27T06:26:02.004Z,4.2
2022-11-27T06:27:02.408Z,4.2
2022-11-27T06:28:02.055Z,4.1
2022-11-27T06:29:02.121Z,4.1
2022-11-27T06:30:02.131Z,4.2
2022-11-27T06:31:02.200Z,4.2
2022-11-27T06:32:02.294Z,4.3
2022-11-27T06:33:02.192Z,4.3
2022-11-27T06:34:02.231Z,4.3
2022-11-27T06:35:02.257Z,4.4
2022-11-27T06:36:02.327Z,4.3
2022-11-27T06:37:02.327Z,4.3
2022-11-27T06:38:02.383Z,4.3
2022-11-27T06:39:02.473Z,4.4
2022-11-27T06:40:02.431Z,4.4
2022-11-27T06:41:02.468Z,4.4
2022-11-27T06:42:02.525Z,4.4
2022-11-27T06:43:02.649Z,4.4
2022-11-27T06:44:02.576Z,4.4
2022-11-27T06:45:02.615Z,4.4
2022-11-27T06:46:02.721Z,4.4
2022-11-27T06:47:02.684Z,4.4
2022-11-27T06:48:02.688Z,4.5
2022-11-27T06:49:02.768Z,4.5
2022-11-27T06:50:02.785Z,4.4
2022-11-27T06:51:02.886Z,4.4
2022-11-27T06:52:02.955Z,4.5
2022-11-27T06:53:03.030Z,4.5
2022-11-27T06:54:03.109Z,4.4
2022-11-27T06:55:08.192Z,4.4
2022-11-27T06:56:03.277Z,4.5
2022-11-27T06:57:03.297Z,4.5
2022-11-27T06:58:03.400Z,4.5
2022-11-27T06:59:03.593Z,4.5
2022-11-27T07:00:03.570Z,4.5
2022-11-27T07:01:03.913Z,4.5
2022-11-27T07:02:03.739Z,4.5
2022-11-27T07:03:03.725Z,4.5
2022-11-27T07:04:03.771Z,4.5
2022-11-27T07:05:04.008Z,4.5
2022-11-27T07:06:03.908Z,4.5
2022-11-27T07:07:03.945Z,4.6
2022-11-27T07:08:04.058Z,4.5
2022-11-27T07:09:04.024Z,4.6
2022-11-27T07:10:04.089Z,4.6
2022-11-27T07:11:04.120Z,4.6
2022-11-27T07:12:04.179Z,4.6
2022-11-27T07:13:04.156Z,4.6
2022-11-27T07:14:04.209Z,4.6
2022-11-27T07:15:04.652Z,4.6
2022-11-27T07:16:04.422Z,4.6
2022-11-27T07:17:04.395Z,4.6
2022-11-27T07:18:04.371Z,4.6
2022-11-27T07:19:04.413Z,4.6
2022-11-27T07:20:04.397Z,4.6
2022-11-27T07:21:04.425Z,4.6
2022-11-27T07:22:04.471Z,4.6
2022-11-27T07:23:04.490Z,4.6
2022-11-27T07:24:04.543Z,4.7
2022-11-27T07:25:04.578Z,4.7
2022-11-27T07:26:04.670Z,4.6
2022-11-27T07:27:04.652Z,4.6
2022-11-27T07:28:04.739Z,4.6
2022-11-27T07:29:04.722Z,4.7
2022-11-27T07:30:04.786Z,4.7
2022-11-27T07:31:04.934Z,4.8
2022-11-27T07:32:04.894Z,4.8
2022-11-27T07:33:04.864Z,4.9
2022-11-27T07:34:08.372Z,4.9
2022-11-27T07:35:04.925Z,4.9
2022-11-27T07:36:04.961Z,4.8
2022-11-27T07:37:05.019Z,4.8
2022-11-27T07:38:05.238Z,4.8
2022-11-27T07:39:05.057Z,4.8
2022-11-27T07:40:05.109Z,4.8
2022-11-27T07:41:20.734Z,4.8
2022-11-27T07:42:38.903Z,4.8
2022-11-27T07:43:05.205Z,4.8
2022-11-27T07:44:05.255Z,4.8
2022-11-27T07:45:05.304Z,4.8
2022-11-27T07:46:05.365Z,4.9
2022-11-27T07:47:05.492Z,4.8
2022-11-27T07:48:05.396Z,4.8
2022-11-27T07:49:05.454Z,4.8
2022-11-27T07:50:05.486Z,4.8
2022-11-27T07:51:05.495Z,4.9
2022-11-27T07:52:05.528Z,4.8
2022-11-27T07:53:05.551Z,4.8
2022-11-27T07:54:05.610Z,4.9
2022-11-27T07:55:05.633Z,4.9
2022-11-27T07:56:05.769Z,4.9
2022-11-27T07:57:05.732Z,4.9
2022-11-27T07:58:05.751Z,4.9
2022-11-27T07:59:05.778Z,4.9
2022-11-27T08:00:05.834Z,4.9
2022-11-27T08:01:05.925Z,4.9
2022-11-27T08:02:05.985Z,4.9
2022-11-27T08:03:06.216Z,4.9
2022-11-27T08:04:06.118Z,4.9
2022-11-27T08:05:11.110Z,4.9
2022-11-27T08:06:06.247Z,4.9
2022-11-27T08:07:06.377Z,5
2022-11-27T08:08:06.435Z,5
2022-11-27T08:09:06.415Z,5
2022-11-27T08:10:06.570Z,5
2022-11-27T08:11:06.556Z,4.9
2022-11-27T08:12:06.555Z,5
2022-11-27T08:13:06.606Z,5
2022-11-27T08:14:06.648Z,5
2022-11-27T08:15:06.635Z,5
2022-11-27T08:16:07.513Z,5
2022-11-27T08:17:06.766Z,5
2022-11-27T08:18:06.824Z,5.1
2022-11-27T08:19:07.165Z,5.1
2022-11-27T08:20:06.965Z,5
2022-11-27T08:21:06.953Z,5.1
2022-11-27T08:22:06.924Z,5.1
2022-11-27T08:23:06.967Z,5.1
2022-11-27T08:24:07.019Z,5.1
2022-11-27T08:25:07.010Z,5.1
2022-11-27T08:26:07.076Z,5.1
2022-11-27T08:27:07.078Z,5.2
2022-11-27T08:28:07.125Z,5.2
2022-11-27T08:29:07.501Z,5.2
2022-11-27T08:30:07.183Z,5.2
2022-11-27T08:31:07.207Z,5.2
2022-11-27T08:32:07.338Z,5.2
2022-11-27T08:33:07.258Z,5.2
2022-11-27T08:34:07.344Z,5.2
2022-11-27T08:35:07.515Z,5.2
2022-11-27T08:36:09.807Z,5.3
2022-11-27T08:37:07.472Z,5.3
2022-11-27T08:38:07.530Z,5.3
2022-11-27T08:39:07.553Z,5.3
2022-11-27T08:40:07.831Z,5.3
2022-11-27T08:41:07.631Z,5.3
2022-11-27T08:42:08.466Z,5.3
2022-11-27T08:43:07.669Z,5.3
2022-11-27T08:46:13.808Z,5.4
2022-11-27T08:47:07.843Z,5.4
2022-11-27T08:48:08.101Z,5.4
2022-11-27T08:49:07.969Z,5.4
2022-11-27T08:50:08.154Z,5.4
2022-11-27T08:51:08.105Z,5.4
2022-11-27T08:52:08.316Z,5.5
2022-11-27T08:53:08.035Z,5.5
2022-11-27T08:54:08.225Z,5.5
2022-11-27T08:55:08.202Z,5.5
2022-11-27T08:56:10.718Z,5.5
2022-11-27T08:57:08.198Z,5.5
2022-11-27T08:58:09.002Z,5.5
2022-11-27T08:59:08.276Z,5.5
2022-11-27T09:00:09.509Z,5.6
2022-11-27T09:01:08.384Z,5.5
2022-11-27T09:02:08.574Z,5.5
2022-11-27T09:03:08.371Z,5.6
2022-11-27T09:04:08.576Z,5.5
2022-11-27T09:05:08.475Z,5.5
2022-11-27T09:06:09.146Z,5.6
2022-11-27T09:07:08.622Z,5.6
2022-11-27T09:08:08.718Z,5.6
2022-11-27T09:09:08.585Z,5.6
2022-11-27T09:10:09.098Z,5.6
2022-11-27T09:11:08.640Z,5.6
2022-11-27T09:12:09.022Z,5.6
2022-11-27T09:13:08.730Z,5.6
2022-11-27T09:14:08.883Z,5.6
2022-11-27T09:15:08.928Z,5.6
2022-11-27T09:16:11.449Z,5.6
2022-11-27T09:17:09.083Z,5.7
2022-11-27T09:18:09.926Z,5.7
2022-11-27T09:19:09.410Z,5.7
2022-11-27T09:20:10.098Z,5.7
2022-11-27T09:21:09.267Z,5.7
2022-11-27T09:22:12.049Z,5.7
2022-11-27T09:23:14.194Z,5.7
2022-11-27T09:24:09.905Z,5.7
2022-11-27T09:25:09.701Z,5.7
2022-11-27T09:26:10.869Z,5.8
2022-11-27T09:27:09.526Z,5.8
2022-11-27T09:28:13.038Z,5.8
2022-11-27T09:29:09.607Z,5.8
2022-11-27T09:30:12.357Z,5.8
2022-11-27T09:31:09.712Z,5.8
2022-11-27T09:32:10.046Z,5.8
2022-11-27T09:33:09.797Z,5.8
2022-11-27T09:34:14.314Z,5.9
2022-11-27T09:35:09.850Z,5.9
2022-11-27T09:36:11.165Z,5.9
2022-11-27T09:37:10.429Z,5.9
2022-11-27T09:38:10.929Z,5.9
2022-11-27T09:39:10.034Z,5.9
2022-11-27T09:40:10.849Z,5.9
2022-11-27T09:41:10.034Z,6
2022-11-27T09:42:10.337Z,6
2022-11-27T09:43:11.541Z,6
2022-11-27T09:44:10.895Z,6
2022-11-27T09:45:10.715Z,6
2022-11-27T09:46:11.009Z,6
2022-11-27T09:47:10.262Z,6.1
2022-11-27T09:48:11.447Z,6.1
2022-11-27T09:49:12.038Z,6.1
2022-11-27T09:50:11.056Z,6.1
2022-11-27T09:51:10.402Z,6
2022-11-27T09:52:12.903Z,6
2022-11-27T09:53:10.459Z,6
2022-11-27T09:54:10.675Z,6
2022-11-27T09:55:11.764Z,6
2022-11-27T09:56:10.720Z,6.1
2022-11-27T09:57:10.628Z,6.1
2022-11-27T09:58:13.298Z,6.1
2022-11-27T09:59:10.777Z,6.1
2022-11-27T10:00:10.677Z,6.1
2022-11-27T10:01:12.699Z,6.1
2022-11-27T10:02:10.902Z,6.2
2022-11-27T10:03:10.898Z,6.2
2022-11-27T10:04:11.054Z,6.2
2022-11-27T10:05:14.689Z,6.3
2022-11-27T10:06:10.928Z,6.3
2022-11-27T10:07:15.199Z,6.3
2022-11-27T10:08:11.113Z,6.3
2022-11-27T10:09:11.249Z,6.3
2022-11-27T10:10:14.074Z,6.4
2022-11-27T10:11:11.069Z,6.4
2022-11-27T10:12:11.079Z,6.5
2022-11-27T10:13:12.102Z,6.5
2022-11-27T10:14:11.168Z,6.6
2022-11-27T10:15:11.225Z,6.7
2022-11-27T10:16:12.041Z,6.8
2022-11-27T10:17:11.389Z,6.9
2022-11-27T10:18:11.285Z,7
2022-11-27T10:19:11.318Z,7
2022-11-27T10:20:11.339Z,7
2022-11-27T10:21:11.388Z,7
2022-11-27T10:22:12.627Z,7
2022-11-27T10:23:11.471Z,7.1
2022-11-27T10:24:11.531Z,7.2
2022-11-27T10:25:11.850Z,7.2
2022-11-27T10:26:11.772Z,7.2
2022-11-27T10:27:11.688Z,7.1
2022-11-27T10:28:12.786Z,7.2
2022-11-27T10:29:16.909Z,7.2
2022-11-27T10:30:11.914Z,7.1
2022-11-27T10:31:11.964Z,7.1
2022-11-27T10:32:26.992Z,7.2
2022-11-27T10:33:12.077Z,7.3
2022-11-27T10:34:13.504Z,7.5
2022-11-27T10:35:12.168Z,7.5
2022-11-27T10:36:12.265Z,7.5
2022-11-27T10:37:13.806Z,7.7
2022-11-27T10:38:12.360Z,7.9
2022-11-27T10:39:12.426Z,8.1
2022-11-27T10:40:12.869Z,8.2
2022-11-27T10:41:28.360Z,8.2
2022-11-27T10:42:12.962Z,8.1
2022-11-27T10:43:13.273Z,7.9
2022-11-27T10:44:12.632Z,7.8
2022-11-27T10:45:12.680Z,7.9
2022-11-27T10:46:13.398Z,7.9
2022-11-27T10:47:12.744Z,8
2022-11-27T10:48:13.548Z,8
2022-11-27T10:49:13.418Z,8
2022-11-27T10:50:12.826Z,8.1
2022-11-27T10:51:12.886Z,8.1
2022-11-27T10:52:14.004Z,8.1
2022-11-27T10:53:12.995Z,8.1
2022-11-27T10:54:13.209Z,8
2022-11-27T10:55:15.413Z,7.9
2022-11-27T10:56:13.040Z,8
2022-11-27T10:57:13.126Z,7.8
2022-11-27T10:58:13.238Z,7.8
2022-11-27T10:59:13.172Z,7.7
2022-11-27T11:00:13.175Z,7.6
2022-11-27T11:01:14.052Z,7.6
2022-11-27T11:07:25.045Z,7.7
2022-11-27T11:08:24.906Z,7.7
2022-11-27T11:09:24.976Z,7.8
2022-11-27T11:10:25.007Z,7.7
2022-11-27T11:11:25.038Z,7.7
2022-11-27T11:12:25.093Z,7.7
2022-11-27T11:13:25.237Z,7.7
2022-11-27T11:14:25.184Z,7.7
2022-11-27T11:15:30.268Z,7.7
2022-11-27T11:16:26.553Z,7.7
2022-11-27T11:17:25.734Z,7.7
2022-11-27T11:18:25.298Z,7.8
2022-11-27T11:19:25.351Z,7.8
2022-11-27T11:20:25.490Z,7.7
2022-11-27T11:21:25.416Z,7.8
2022-11-27T11:22:25.499Z,7.8
2022-11-27T11:23:25.501Z,7.8
2022-11-27T11:24:25.535Z,7.9
2022-11-27T11:25:25.624Z,7.9
2022-11-27T11:26:25.635Z,7.9
2022-11-27T11:27:25.710Z,7.9
2022-11-27T11:28:25.783Z,7.9
2022-11-27T11:29:25.959Z,7.9
2022-11-27T11:30:25.807Z,8
2022-11-27T11:31:29.544Z,8.1
2022-11-27T11:32:25.875Z,8
2022-11-27T11:33:25.880Z,8
2022-11-27T11:34:25.914Z,8
2022-11-27T11:35:25.964Z,7.9
2022-11-27T11:36:26.053Z,7.9
2022-11-27T11:37:27.668Z,7.9
2022-11-27T11:38:27.688Z,7.9
2022-11-27T11:39:27.785Z,7.9
2022-11-27T11:40:27.908Z,7.9
2022-11-27T11:41:27.933Z,8
2022-11-27T11:44:38.837Z,8
2022-11-27T11:45:31.283Z,8
2022-11-27T11:46:28.260Z,8.1
2022-11-27T11:47:28.227Z,8.3
2022-11-27T11:48:28.267Z,8.4
2022-11-27T11:49:28.316Z,8.4
2022-11-27T11:50:28.357Z,8.5
2022-11-27T11:51:29.487Z,8.6
2022-11-27T11:52:28.401Z,8.5
2022-11-27T11:53:28.409Z,8.5
2022-11-27T11:54:28.456Z,8.5
2022-11-27T11:55:28.494Z,8.5
2022-11-27T11:56:28.559Z,8.4
2022-11-27T11:57:28.573Z,8.5
2022-11-27T11:58:28.615Z,8.4
2022-11-27T11:59:28.660Z,8.3
2022-11-27T12:00:31.550Z,8.4
2022-11-27T12:01:28.780Z,8.3
2022-11-27T12:02:28.841Z,8.3
2022-11-27T12:03:28.793Z,8.3
2022-11-27T12:04:28.948Z,8.2
2022-11-27T12:05:28.888Z,8.2
2022-11-27T12:06:28.887Z,8.1
2022-11-27T12:07:28.982Z,8.1
2022-11-27T12:08:28.950Z,8.1
2022-11-27T12:09:29.017Z,8
2022-11-27T12:10:29.007Z,8
2022-11-27T12:11:29.052Z,8
2022-11-27T12:12:29.088Z,8.1
2022-11-27T12:13:32.919Z,8.1
2022-11-27T12:14:29.154Z,8
2022-11-27T12:15:29.207Z,8
2022-11-27T12:16:29.386Z,7.9
2022-11-27T12:17:29.265Z,7.8
2022-11-27T12:18:29.295Z,7.8
2022-11-27T12:19:29.312Z,7.8
2022-11-27T12:20:29.367Z,7.8
2022-11-27T12:21:29.417Z,7.8
2022-11-27T12:22:29.466Z,7.8
2022-11-27T12:23:29.478Z,7.7
2022-11-27T12:24:29.521Z,7.7
2022-11-27T12:25:29.570Z,7.7
2022-11-27T12:26:29.599Z,7.8
2022-11-27T12:27:29.662Z,7.7
2022-11-27T12:28:29.674Z,7.8
2022-11-27T12:29:29.709Z,7.8
2022-11-27T12:30:29.753Z,7.8
2022-11-27T12:31:30.013Z,7.8
2022-11-27T12:32:29.965Z,7.8
2022-11-27T12:33:29.921Z,7.8
2022-11-27T12:34:29.874Z,7.8
2022-11-27T12:35:29.921Z,7.8
2022-11-27T12:36:29.926Z,7.8
2022-11-27T12:37:30.000Z,7.8
2022-11-27T12:38:30.026Z,7.9
2022-11-27T12:39:30.050Z,7.9
2022-11-27T12:40:31.568Z,7.9
2022-11-27T12:41:30.127Z,7.9
2022-11-27T12:42:30.175Z,7.9
2022-11-27T12:43:30.194Z,7.9
2022-11-27T12:44:30.274Z,7.8
2022-11-27T12:45:30.311Z,7.8
2022-11-27T12:46:30.342Z,7.8
2022-11-27T12:47:30.393Z,7.8
2022-11-27T12:48:30.563Z,7.8
2022-11-27T12:49:30.505Z,7.8
2022-11-27T12:50:30.571Z,7.8
2022-11-27T12:51:30.616Z,7.8
2022-11-27T12:52:30.890Z,7.7
2022-11-27T12:53:30.679Z,7.7
2022-11-27T12:54:30.772Z,7.7
2022-11-27T12:55:30.785Z,7.8
2022-11-27T12:56:36.601Z,7.7
2022-11-27T12:57:31.246Z,7.7
2022-11-27T12:58:37.875Z,7.7
2022-11-27T12:59:31.478Z,7.7
2022-11-27T13:01:44.933Z,7.7
2022-11-27T13:02:31.061Z,7.7
2022-11-27T13:03:31.020Z,7.7
2022-11-27T13:04:31.251Z,7.7
2022-11-27T13:05:31.181Z,7.6
2022-11-27T13:06:31.186Z,7.6
2022-11-27T13:07:31.239Z,7.6
2022-11-27T13:08:31.191Z,7.6
2022-11-27T13:09:31.225Z,7.6
2022-11-27T13:10:31.279Z,7.6
2022-11-27T13:11:31.291Z,7.6
2022-11-27T13:12:31.347Z,7.6
2022-11-27T13:13:31.353Z,7.6
2022-11-27T13:14:31.382Z,7.6
2022-11-27T13:15:31.469Z,7.7
2022-11-27T13:16:31.488Z,7.6
2022-11-27T13:17:31.538Z,7.6
2022-11-27T13:18:31.523Z,7.6
2022-11-27T13:19:31.573Z,7.6
2022-11-27T13:20:31.723Z,7.6
2022-11-27T13:21:31.621Z,7.6
2022-11-27T13:22:31.652Z,7.5
2022-11-27T13:23:31.710Z,7.6
2022-11-27T13:24:31.718Z,7.6
2022-11-27T13:25:31.746Z,7.6
2022-11-27T13:26:31.850Z,7.6
2022-11-27T13:27:31.849Z,7.5
2022-11-27T13:28:31.869Z,7.5
2022-11-27T13:29:31.922Z,7.5
2022-11-27T13:30:31.934Z,7.5
2022-11-27T13:31:31.999Z,7.5
2022-11-27T13:32:32.003Z,7.5
2022-11-27T13:33:32.022Z,7.5
2022-11-27T13:34:32.089Z,7.5
2022-11-27T13:35:32.156Z,7.5
2022-11-27T13:36:35.972Z,7.5
2022-11-27T13:37:32.210Z,7.5
2022-11-27T13:38:32.237Z,7.5
2022-11-27T13:39:32.296Z,7.5
2022-11-27T13:40:32.294Z,7.5
2022-11-27T13:41:32.325Z,7.6
2022-11-27T13:42:32.385Z,7.5
2022-11-27T13:43:32.406Z,7.6
2022-11-27T13:44:32.443Z,7.6
2022-11-27T13:45:32.483Z,7.5
2022-11-27T13:46:32.516Z,7.5
2022-11-27T13:47:32.544Z,7.5
2022-11-27T13:48:32.671Z,7.5
2022-11-27T13:49:32.660Z,7.5
2022-11-27T13:50:32.664Z,7.4
2022-11-27T13:51:32.820Z,7.4
2022-11-27T13:52:48.302Z,7.5
2022-11-27T13:54:05.969Z,7.4
2022-11-27T13:54:34.223Z,7.4
2022-11-27T13:55:34.039Z,7.4
2022-11-27T13:56:33.859Z,7.5
2022-11-27T13:57:33.218Z,7.5
2022-11-27T13:58:40.771Z,7.4
2022-11-27T14:00:33.119Z,7.4
2022-11-27T14:01:33.270Z,7.4
2022-11-27T14:02:35.212Z,7.4
2022-11-27T14:03:37.029Z,7.4
2022-11-27T14:04:33.471Z,7.4
2022-11-27T14:05:33.394Z,7.4